createdAt,value
2022-12-24T00:00:42.001Z,95975.13
2022-12-24T00:03:09.452Z,95974.06
2022-12-24T00:05:37.978Z,95980.66
2022-12-24T00:08:05.447Z,96005.31
2022-12-24T00:10:32.758Z,96011.28
2022-12-24T00:13:01.355Z,96017.66
2022-12-24T00:15:28.500Z,96010.84
2022-12-24T00:17:55.755Z,96000.75
2022-12-24T00:20:22.947Z,96005.63
2022-12-24T00:22:50.263Z,96012.13
2022-12-24T00:25:17.568Z,96024.75
2022-12-24T00:27:44.831Z,96024.03
2022-12-24T00:30:13.648Z,96026.44
2022-12-24T00:32:40.899Z,96034.00
2022-12-24T00:35:08.689Z,96032.94
2022-12-24T00:37:35.928Z,96035.50
2022-12-24T00:40:03.690Z,96040.25
2022-12-24T00:42:31.023Z,96043.56
2022-12-24T00:44:58.237Z,96061.66
2022-12-24T00:47:26.933Z,96060.16
2022-12-24T00:49:54.160Z,96064.94
2022-12-24T00:52:21.453Z,96071.94
2022-12-24T00:54:48.642Z,96072.94
2022-12-24T00:57:15.896Z,96078.97
2022-12-24T00:59:43.125Z,96073.66
2022-12-24T01:02:10.687Z,96062.06
2022-12-24T01:04:39.451Z,96062.06
2022-12-24T01:07:06.757Z,96057.81
2022-12-24T01:09:34.012Z,96066.66
2022-12-24T01:12:01.330Z,96054.31
2022-12-24T01:14:28.501Z,96066.13
2022-12-24T01:16:55.752Z,96075.69
2022-12-24T01:19:22.933Z,96063.88
2022-12-24T01:21:51.568Z,96058.13
2022-12-24T01:24:18.757Z,96070.16
2022-12-24T01:26:46.094Z,96071.19
2022-12-24T01:29:13.369Z,96053.59
2022-12-24T01:31:40.701Z,96038.47
2022-12-24T01:34:08.041Z,96027.63
2022-12-24T01:36:36.101Z,96018.59
2022-12-24T01:39:05.070Z,96001.25
2022-12-24T01:41:33.148Z,95992.47
2022-12-24T01:44:36.496Z,95969.59
2022-12-24T01:47:10.199Z,96833.34
2022-12-24T01:49:41.995Z,96978.38
2022-12-24T01:52:12.933Z,97038.44
2022-12-24T01:54:47.471Z,97011.03
2022-12-24T01:57:18.234Z,96974.84
2022-12-24T01:59:49.595Z,96976.34
2022-12-24T02:02:17.851Z,96983.91
2022-12-24T02:04:51.128Z,96998.22
2022-12-24T02:07:18.510Z,96993.69
2022-12-24T02:09:49.600Z,97005.50
2022-12-24T02:12:16.913Z,97001.50
2022-12-24T02:14:44.096Z,97006.53
2022-12-24T02:17:20.696Z,97018.09
2022-12-24T02:20:17.651Z,97022.09
2022-12-24T02:23:03.279Z,97036.19
2022-12-24T02:25:55.737Z,97039.97
2022-12-24T02:28:43.698Z,97054.75
2022-12-24T02:31:20.050Z,97063.56
2022-12-24T02:33:52.273Z,97064.34
2022-12-24T02:36:25.682Z,97070.13
2022-12-24T02:39:01.612Z,97084.19
2022-12-24T02:41:33.549Z,97079.66
2022-12-24T02:44:00.938Z,97075.13
2022-12-24T02:46:32.694Z,97081.19
2022-12-24T02:49:00.971Z,97080.41
2022-12-24T02:51:28.180Z,97084.19
2022-12-24T02:53:55.625Z,97086.97
2022-12-24T02:56:52.880Z,97082.66
2022-12-24T02:59:46.702Z,97089.47
2022-12-24T03:02:26.609Z,97091.97
2022-12-24T03:04:59.661Z,97096.00
2022-12-24T03:07:31.822Z,97102.53
2022-12-24T03:10:08.325Z,97105.03
2022-12-24T03:12:39.961Z,97091.22
2022-12-24T03:15:09.456Z,97103.78
2022-12-24T03:17:40.685Z,97107.31
2022-12-24T03:20:10.715Z,97115.84
2022-12-24T03:22:38.775Z,97121.63
2022-12-24T03:25:06.510Z,97109.56
2022-12-24T03:27:35.248Z,97126.16
2022-12-24T03:30:03.879Z,97145.28
2022-12-24T03:32:32.833Z,97136.22
2022-12-24T03:35:01.827Z,97139.72
2022-12-24T03:37:29.047Z,97144.28
2022-12-24T03:39:56.334Z,97137.72
2022-12-24T03:42:23.571Z,97143.25
2022-12-24T03:44:50.824Z,97151.81
2022-12-24T03:47:18.089Z,97152.81
2022-12-24T03:49:45.796Z,97145.00
2022-12-24T03:52:14.364Z,97153.31
2022-12-24T03:54:41.771Z,97144.50
2022-12-24T03:57:09.010Z,97150.03
2022-12-24T03:59:36.235Z,97146.28
2022-12-24T04:02:03.551Z,97143.50
2022-12-24T04:04:30.912Z,97168.41
2022-12-24T04:06:58.097Z,97165.13
2022-12-24T04:09:28.007Z,97168.16
2022-12-24T04:11:55.244Z,97155.56
2022-12-24T04:14:22.540Z,97170.16
2022-12-24T04:16:49.780Z,97178.72
2022-12-24T04:19:17.051Z,97184.50
2022-12-24T04:21:44.367Z,97193.06
2022-12-24T04:24:11.585Z,97193.78
2022-12-24T04:26:40.215Z,97196.06
2022-12-24T04:29:07.409Z,97195.56
2022-12-24T04:31:34.759Z,97204.13
2022-12-24T04:34:02.168Z,97222.72
2022-12-24T04:36:30.352Z,97212.41
2022-12-24T04:38:57.640Z,97218.69
2022-12-24T04:41:25.252Z,97221.72
2022-12-24T04:43:55.008Z,97240.81
2022-12-24T04:46:24.808Z,97242.84
2022-12-24T04:48:54.066Z,97231.25
2022-12-24T04:51:21.837Z,97251.13
2022-12-24T04:53:49.382Z,97253.16
2022-12-24T04:56:18.573Z,97271.00
2022-12-24T04:58:45.903Z,97265.97
2022-12-24T05:01:17.309Z,97273.03
2022-12-24T05:03:44.885Z,97268.25
2022-12-24T05:06:14.341Z,97267.00
2022-12-24T05:08:42.148Z,97267.50
2022-12-24T05:11:10.045Z,97276.81
2022-12-24T05:13:44.326Z,97266.72
2022-12-24T05:16:16.901Z,97273.53
2022-12-24T05:18:44.381Z,97280.56
2022-12-24T05:21:15.044Z,97277.28
2022-12-24T05:23:42.538Z,97272.00
2022-12-24T05:26:16.440Z,97269.00
2022-12-24T05:28:43.695Z,97273.50
2022-12-24T05:31:11.047Z,97282.06
2022-12-24T05:33:39.693Z,97271.50
2022-12-24T05:36:07.837Z,97275.53
2022-12-24T05:38:35.139Z,97274.53
2022-12-24T05:41:02.414Z,97264.44
2022-12-24T05:43:29.725Z,97269.97
2022-12-24T05:45:58.888Z,97266.94
2022-12-24T05:48:26.220Z,97273.25
2022-12-24T05:50:55.429Z,97280.03
2022-12-24T05:53:23.101Z,97296.66
2022-12-24T05:55:50.393Z,97281.25
2022-12-24T05:58:17.725Z,97287.31
2022-12-24T06:00:44.971Z,97280.75
2022-12-24T06:03:12.245Z,97259.53
2022-12-24T06:05:39.467Z,97248.44
2022-12-24T06:08:08.109Z,97243.09
2022-12-24T06:10:35.371Z,97235.50
2022-12-24T06:13:02.615Z,97224.84
2022-12-24T06:15:29.836Z,97211.72
2022-12-24T06:17:57.078Z,97200.38
2022-12-24T06:20:24.261Z,97197.31
2022-12-24T06:22:51.517Z,97178.38
2022-12-24T06:25:20.082Z,97175.56
2022-12-24T06:27:47.327Z,97172.75
2022-12-24T06:30:14.900Z,97150.47
2022-12-24T06:32:42.170Z,97148.38
2022-12-24T06:35:09.442Z,97143.13
2022-12-24T06:37:36.655Z,97127.22
2022-12-24T06:40:04.630Z,97126.72
2022-12-24T06:42:33.403Z,97121.41
2022-12-24T06:45:07.494Z,97127.72
2022-12-24T06:47:35.593Z,97114.06
2022-12-24T06:50:02.967Z,97130.00
2022-12-24T06:52:30.155Z,97139.16
2022-12-24T06:54:57.388Z,97143.97
2022-12-24T06:57:24.747Z,97146.41
2022-12-24T06:59:53.302Z,97148.94
2022-12-24T07:02:20.588Z,97178.00
2022-12-24T07:04:47.775Z,97195.19
2022-12-24T07:07:15.080Z,97217.41
2022-12-24T07:09:42.336Z,97222.91
2022-12-24T07:12:09.656Z,97235.50
2022-12-24T07:14:36.946Z,97255.91
2022-12-24T07:17:06.711Z,97244.00
2022-12-24T07:19:34.035Z,97254.06
2022-12-24T07:22:01.274Z,97266.19
2022-12-24T07:24:28.572Z,97280.59
2022-12-24T07:26:55.824Z,97263.38
2022-12-24T07:29:23.047Z,97274.00
2022-12-24T07:31:50.378Z,97264.16
2022-12-24T07:34:19.061Z,97259.88
2022-12-24T07:36:46.383Z,97256.56
2022-12-24T07:39:13.617Z,97260.81
2022-12-24T07:41:41.848Z,97247.50
2022-12-24T07:44:11.783Z,97245.50
2022-12-24T07:46:39.250Z,97236.41
2022-12-24T07:49:06.649Z,97207.66
2022-12-24T07:51:35.229Z,97198.53
2022-12-24T07:54:02.889Z,97188.19
2022-12-24T07:56:30.154Z,97167.97
2022-12-24T07:58:57.755Z,97137.69
2022-12-24T08:01:25.498Z,97095.63
2022-12-24T08:03:52.893Z,97070.13
2022-12-24T08:06:20.494Z,97026.84
2022-12-24T08:08:49.325Z,97001.44
2022-12-24T08:11:17.093Z,96968.34
2022-12-24T08:13:44.908Z,96920.56
2022-12-24T08:16:12.567Z,96889.34
2022-12-24T08:18:39.784Z,96846.88
2022-12-24T08:21:07.876Z,96800.16
2022-12-24T08:23:35.213Z,96746.66
2022-12-24T08:26:07.158Z,96691.25
2022-12-24T08:28:34.909Z,96651.50
2022-12-24T08:31:02.739Z,96602.75
2022-12-24T08:33:29.960Z,96574.44
2022-12-24T08:35:57.487Z,96550.22
2022-12-24T08:38:24.974Z,96532.59
2022-12-24T08:40:53.717Z,96513.59
2022-12-24T08:43:22.883Z,96509.84
2022-12-24T08:45:50.433Z,96509.09
2022-12-24T08:48:17.881Z,96513.25
2022-12-24T08:50:45.585Z,96514.88
2022-12-24T08:53:13.402Z,96520.84
2022-12-24T08:55:40.830Z,96529.38
2022-12-24T08:58:08.157Z,96555.53
2022-12-24T09:00:37.277Z,96557.78
2022-12-24T09:03:04.728Z,96568.88
2022-12-24T09:05:32.008Z,96570.59
2022-12-24T09:07:59.455Z,96591.94
2022-12-24T09:10:26.702Z,96607.75
2022-12-24T09:12:54.085Z,96617.81
2022-12-24T09:15:21.632Z,96620.38
2022-12-24T09:17:50.304Z,96643.75
2022-12-24T09:20:17.763Z,96637.34
2022-12-24T09:22:45.060Z,96644.31
2022-12-24T09:25:12.679Z,96640.13
2022-12-24T09:27:39.929Z,96646.00
2022-12-24T09:30:09.793Z,96652.63
2022-12-24T09:32:37.059Z,96654.22
2022-12-24T09:35:06.138Z,96653.59
2022-12-24T09:37:33.498Z,96664.16
2022-12-24T09:40:00.701Z,96650.06
2022-12-24T09:42:40.249Z,96624.22
2022-12-24T09:45:16.309Z,96583.47
2022-12-24T09:47:48.576Z,96536.78
2022-12-24T09:50:29.148Z,96481.06
2022-12-24T09:52:58.610Z,96456.50
2022-12-24T09:55:30.453Z,96425.41
2022-12-24T09:57:59.545Z,96404.88
2022-12-24T10:00:30.560Z,96344.00
2022-12-24T10:02:57.843Z,96284.78
2022-12-24T10:05:36.909Z,96260.31
2022-12-24T10:08:15.863Z,96226.69
2022-12-24T10:10:50.766Z,96187.47
2022-12-24T10:13:29.577Z,96197.09
2022-12-24T10:16:03.274Z,96216.66
2022-12-24T10:18:44.197Z,96210.72
2022-12-24T10:21:27.301Z,96198.50
2022-12-24T10:24:00.455Z,96185.97
2022-12-24T10:26:34.300Z,96192.78
2022-12-24T10:29:08.637Z,96188.63
2022-12-24T10:31:39.715Z,96191.59
2022-12-24T10:34:16.154Z,96221.63
2022-12-24T10:36:44.805Z,96254.53
2022-12-24T10:39:18.486Z,96293.34
2022-12-24T10:41:46.351Z,96310.91
2022-12-24T10:44:17.705Z,96327.59
2022-12-24T10:46:46.149Z,96344.06
2022-12-24T10:49:15.671Z,96366.09
2022-12-24T10:51:50.203Z,96380.75
2022-12-24T10:54:26.241Z,96400.97
2022-12-24T10:56:57.883Z,96412.31
2022-12-24T10:59:27.875Z,96438.56
2022-12-24T11:01:58.712Z,96435.69
2022-12-24T11:04:28.083Z,96460.88
2022-12-24T11:06:59.441Z,96480.53
2022-12-24T11:09:29.298Z,96505.66
2022-12-24T11:12:00.424Z,96489.22
2022-12-24T11:14:34.819Z,96497.16
2022-12-24T11:17:02.282Z,96470.22
2022-12-24T11:19:32.956Z,96459.41
2022-12-24T11:22:04.820Z,96440.06
2022-12-24T11:24:34.254Z,96467.34
2022-12-24T11:27:29.934Z,96404.72
2022-12-24T11:30:19.831Z,96443.41
2022-12-24T11:32:49.449Z,96453.09
2022-12-24T11:35:19.449Z,96511.94
2022-12-24T11:37:48.327Z,96522.16
2022-12-24T11:40:20.712Z,96558.97
2022-12-24T11:42:50.128Z,96578.38
2022-12-24T11:45:22.452Z,96525.84
2022-12-24T11:47:50.164Z,96523.69
2022-12-24T11:50:26.726Z,96551.94
2022-12-24T11:53:05.317Z,96393.06
2022-12-24T11:55:40.998Z,96434.00
2022-12-24T11:58:20.147Z,96395.09
2022-12-24T12:00:50.358Z,96424.75
2022-12-24T12:03:29.296Z,96417.25
2022-12-24T12:05:59.824Z,96410.72
2022-12-24T12:08:30.246Z,96422.97
2022-12-24T12:10:59.126Z,96420.88
2022-12-24T12:13:29.526Z,96411.41
2022-12-24T12:16:06.358Z,96420.63
2022-12-24T12:18:37.352Z,96404.38
2022-12-24T12:21:09.630Z,96414.34
2022-12-24T12:23:44.544Z,96407.66
2022-12-24T12:26:17.696Z,96415.22
2022-12-24T12:28:49.487Z,96417.81
2022-12-24T12:31:22.536Z,96412.59
2022-12-24T12:33:54.860Z,96424.72
2022-12-24T12:36:26.727Z,96410.56
2022-12-24T12:38:55.571Z,96357.69
2022-12-24T12:41:39.967Z,96302.16
2022-12-24T12:44:30.339Z,96329.38
2022-12-24T12:47:22.977Z,96336.31
2022-12-24T12:50:02.616Z,96335.59
2022-12-24T12:52:44.222Z,96318.34
2022-12-24T12:55:26.156Z,96307.00
2022-12-24T12:58:06.549Z,96282.38
2022-12-24T13:00:38.630Z,96321.28
2022-12-24T13:03:32.031Z,96322.56
2022-12-24T13:06:22.226Z,96309.03
2022-12-24T13:09:14.803Z,96297.75
2022-12-24T13:12:11.521Z,96307.41
2022-12-24T13:14:55.830Z,96310.56
2022-12-24T13:17:42.704Z,96325.97
2022-12-24T13:20:24.098Z,96328.56
2022-12-24T13:22:57.517Z,96332.91
2022-12-24T13:25:30.740Z,96355.34
2022-12-24T13:28:15.713Z,96373.50
2022-12-24T13:30:43.069Z,96391.16
2022-12-24T13:33:12.023Z,96379.97
2022-12-24T13:35:59.191Z,96405.75
2022-12-24T13:38:43.050Z,96402.84
2022-12-24T13:41:56.257Z,96441.59
2022-12-24T13:44:29.543Z,96484.59
2022-12-24T13:47:00.315Z,96502.38
2022-12-24T13:49:31.832Z,96508.72
2022-12-24T13:52:22.547Z,96540.72
2022-12-24T13:55:17.732Z,96549.41
2022-12-24T13:57:54.158Z,96559.44
2022-12-24T14:00:34.300Z,96556.38
2022-12-24T14:03:07.803Z,96565.28
2022-12-24T14:05:39.847Z,96554.78
2022-12-24T14:08:11.298Z,96593.94
2022-12-24T14:10:41.073Z,96602.75
2022-12-24T14:13:41.756Z,96597.34
2022-12-24T14:16:12.771Z,96587.91
2022-12-24T14:18:42.285Z,96576.28
2022-12-24T14:21:17.265Z,96582.50
2022-12-24T14:23:51.543Z,96607.56
2022-12-24T14:26:22.051Z,96627.03
2022-12-24T14:28:55.043Z,96700.69
2022-12-24T14:31:24.036Z,96746.47
2022-12-24T14:33:51.695Z,96771.25
2022-12-24T14:36:23.350Z,96783.66
2022-12-24T14:38:50.955Z,96797.16
2022-12-24T14:41:28.461Z,96812.91
2022-12-24T14:44:05.214Z,96828.84
2022-12-24T14:46:42.402Z,96843.19
2022-12-24T14:49:23.751Z,96846.59
2022-12-24T14:51:57.473Z,96849.69
2022-12-24T14:54:33.999Z,96869.25
2022-12-24T14:57:23.291Z,96883.16
2022-12-24T14:59:52.743Z,96900.44
2022-12-24T15:02:45.896Z,96888.56
2022-12-24T15:05:15.976Z,96894.97
2022-12-24T15:07:47.968Z,96908.00
2022-12-24T15:10:27.915Z,96900.22
2022-12-24T15:12:57.633Z,96908.94
2022-12-24T15:15:24.992Z,96910.94
2022-12-24T15:17:55.188Z,96918.88
2022-12-24T15:20:25.730Z,96917.09
2022-12-24T15:22:54.834Z,96914.63
2022-12-24T15:25:24.622Z,96915.44
2022-12-24T15:27:52.435Z,96927.16
2022-12-24T15:30:21.961Z,96925.44
2022-12-24T15:32:50.959Z,96932.44
2022-12-24T15:35:34.522Z,96923.47
2022-12-24T15:38:03.567Z,96929.88
2022-12-24T15:40:30.862Z,96931.38
2022-12-24T15:42:58.293Z,96929.44
2022-12-24T15:45:28.929Z,96933.47
2022-12-24T15:48:00.452Z,96936.78
2022-12-24T15:50:30.643Z,96939.63
2022-12-24T15:53:20.619Z,96934.88
2022-12-24T15:56:01.248Z,96920.34
2022-12-24T15:58:30.622Z,96933.16
2022-12-24T16:01:28.452Z,96925.91
2022-12-24T16:03:58.613Z,96917.88
2022-12-24T16:06:26.160Z,96925.06
2022-12-24T16:08:55.383Z,96929.34
2022-12-24T16:11:24.334Z,96933.53
2022-12-24T16:14:00.343Z,96944.13
2022-12-24T16:16:36.657Z,96955.16
2022-12-24T16:19:06.360Z,96971.75
2022-12-24T16:21:36.298Z,96995.09
2022-12-24T16:24:07.789Z,97014.88
2022-12-24T16:26:35.895Z,97064.94
2022-12-24T16:29:03.119Z,97112.66
2022-12-24T16:31:33.331Z,97164.16
2022-12-24T16:34:01.839Z,97187.91
2022-12-24T16:36:30.627Z,97206.63
2022-12-24T16:38:58.409Z,97214.94
2022-12-24T16:41:27.111Z,97222.28
2022-12-24T16:43:54.308Z,97211.66
2022-12-24T16:46:21.785Z,97210.97
2022-12-24T16:48:49.297Z,97210.22
2022-12-24T16:51:16.598Z,97209.91
2022-12-24T16:53:43.853Z,97215.25
2022-12-24T16:56:11.126Z,97209.00
2022-12-24T16:58:39.706Z,97203.06
2022-12-24T17:01:08.766Z,97197.97
2022-12-24T17:03:36.645Z,97216.22
2022-12-24T17:06:05.636Z,97219.06
2022-12-24T17:08:32.860Z,97216.56
2022-12-24T17:11:00.128Z,97222.59
2022-12-24T17:13:27.395Z,97213.00
2022-12-24T17:15:56.140Z,97233.25
2022-12-24T17:18:23.406Z,97241.06
2022-12-24T17:20:58.305Z,97252.13
2022-12-24T17:23:25.699Z,97250.09
2022-12-24T17:25:52.981Z,97273.38
2022-12-24T17:28:20.264Z,97281.19
2022-12-24T17:30:47.692Z,97304.69
2022-12-24T17:33:16.433Z,97315.84
2022-12-24T17:35:44.122Z,97317.66
2022-12-24T17:38:11.390Z,97326.97
2022-12-24T17:40:38.624Z,97359.94
2022-12-24T17:43:06.058Z,97375.41
2022-12-24T17:45:33.395Z,97385.53
2022-12-24T17:48:00.716Z,97393.81
2022-12-24T17:50:29.369Z,97402.19
2022-12-24T17:52:56.623Z,97413.50
2022-12-24T17:55:23.834Z,97428.91
2022-12-24T17:57:51.156Z,97427.38
2022-12-24T18:00:19.097Z,97438.97
2022-12-24T18:02:46.544Z,97451.38
2022-12-24T18:05:13.819Z,97460.53
2022-12-24T18:07:42.460Z,97479.25
2022-12-24T18:10:10.497Z,97473.91
2022-12-24T18:12:37.785Z,97485.03
2022-12-24T18:15:06.149Z,97489.38
2022-12-24T18:17:33.468Z,97501.00
2022-12-24T18:20:00.744Z,97507.09
2022-12-24T18:22:27.959Z,97506.59
2022-12-24T18:24:56.547Z,97510.63
2022-12-24T18:27:24.055Z,97523.50
2022-12-24T18:29:51.265Z,97528.34
2022-12-24T18:32:18.596Z,97535.41
2022-12-24T18:34:45.867Z,97532.16
2022-12-24T18:37:13.181Z,97527.63
2022-12-24T18:39:40.361Z,97525.84
2022-12-24T18:42:09.336Z,97513.22
2022-12-24T18:44:36.729Z,97505.63
2022-12-24T18:47:04.187Z,97514.22
2022-12-24T18:49:31.524Z,97501.09
2022-12-24T18:51:58.859Z,97499.34
2022-12-24T18:54:26.177Z,97495.28
2022-12-24T18:56:53.493Z,97491.47
2022-12-24T18:59:22.150Z,97513.72
2022-12-24T19:01:49.635Z,97519.03
2022-12-24T19:04:17.003Z,97515.50
2022-12-24T19:06:49.097Z,97505.09
2022-12-24T19:09:20.295Z,97503.88
2022-12-24T19:11:47.560Z,97502.63
2022-12-24T19:14:14.893Z,97502.38
2022-12-24T19:16:43.547Z,97497.53
2022-12-24T19:19:12.346Z,97493.75
2022-12-24T19:21:39.600Z,97501.34
2022-12-24T19:24:07.407Z,97506.41
2022-12-24T19:26:34.663Z,97502.91
2022-12-24T19:29:02.025Z,97516.03
2022-12-24T19:31:29.429Z,97527.91
2022-12-24T19:33:58.117Z,97521.09
2022-12-24T19:36:27.786Z,97531.72
2022-12-24T19:38:55.817Z,97533.69
2022-12-24T19:41:25.456Z,97541.53
2022-12-24T19:43:54.425Z,97534.94
2022-12-24T19:46:25.408Z,97538.47
2022-12-24T19:48:54.429Z,97534.22
2022-12-24T19:51:24.449Z,97546.56
2022-12-24T19:53:53.262Z,97540.75
2022-12-24T19:56:22.045Z,97539.97
2022-12-24T19:58:49.439Z,97534.44
2022-12-24T20:01:18.535Z,97529.63
2022-12-24T20:03:46.932Z,97532.13
2022-12-24T20:06:15.167Z,97535.91
2022-12-24T20:08:44.464Z,97518.75
2022-12-24T20:11:14.186Z,97498.38
2022-12-24T20:13:42.177Z,97491.53
2022-12-24T20:16:11.424Z,97481.47
2022-12-24T20:18:39.005Z,97473.16
2022-12-24T20:21:08.225Z,97466.84
2022-12-24T20:23:36.929Z,97449.50
2022-12-24T20:26:06.701Z,97445.94
2022-12-24T20:28:36.647Z,97425.03
2022-12-24T20:31:10.047Z,97413.69
2022-12-24T20:33:37.357Z,97397.06
2022-12-24T20:36:05.349Z,97362.63
2022-12-24T20:38:32.702Z,97342.97
2022-12-24T20:41:00.675Z,97320.31
2022-12-24T20:43:35.261Z,97292.41
2022-12-24T20:46:04.926Z,97258.19
2022-12-24T20:48:32.240Z,97216.69
2022-12-24T20:50:59.892Z,97189.00
2022-12-24T20:53:27.277Z,97166.09
2022-12-24T20:55:54.899Z,97138.44
2022-12-24T20:58:22.109Z,97108.25
2022-12-24T21:00:51.391Z,97063.75
2022-12-24T21:03:18.769Z,97020.25
2022-12-24T21:05:46.164Z,96981.81
2022-12-24T21:08:14.063Z,96938.03
2022-12-24T21:10:42.122Z,96894.78
2022-12-24T21:13:09.367Z,96858.38
2022-12-24T21:15:38.375Z,96817.16
2022-12-24T21:18:08.075Z,96764.34
2022-12-24T21:20:36.161Z,96724.91
2022-12-24T21:23:03.450Z,96692.22
2022-12-24T21:25:30.753Z,96659.56
2022-12-24T21:27:57.957Z,96612.56
2022-12-24T21:30:25.275Z,96557.47
2022-12-24T21:32:52.580Z,96523.06
2022-12-24T21:35:21.249Z,96489.22
2022-12-24T21:37:48.482Z,96439.91
2022-12-24T21:40:15.793Z,96393.94
2022-12-24T21:42:42.985Z,96364.06
2022-12-24T21:45:11.375Z,96329.41
2022-12-24T21:47:38.570Z,96286.94
2022-12-24T21:50:06.938Z,96250.78
2022-12-24T21:52:35.561Z,96217.50
2022-12-24T21:55:03.261Z,96182.06
2022-12-24T21:57:30.461Z,96151.00
2022-12-24T21:59:59.054Z,96108.59
2022-12-24T22:02:26.416Z,96094.13
2022-12-24T22:04:54.070Z,96057.53
2022-12-24T22:07:23.695Z,96016.31
2022-12-24T22:09:52.360Z,95962.22
2022-12-24T22:12:19.933Z,95935.97
2022-12-24T22:14:47.433Z,95899.22
2022-12-24T22:17:17.153Z,95877.53
2022-12-24T22:19:48.538Z,95839.19
2022-12-24T22:22:15.710Z,95820.38
2022-12-24T22:24:42.897Z,95825.72
2022-12-24T22:27:11.542Z,95804.88
2022-12-24T22:29:38.918Z,95771.72
2022-12-24T22:32:06.443Z,95762.06
2022-12-24T22:34:33.697Z,95735.22
2022-12-24T22:37:01.067Z,95716.75
2022-12-24T22:39:28.468Z,95693.69
2022-12-24T22:41:55.699Z,95698.13
2022-12-24T22:44:24.430Z,95655.53
2022-12-24T22:46:51.775Z,95618.59
2022-12-24T22:49:19.104Z,95595.22
2022-12-24T22:51:46.351Z,95582.56
2022-12-24T22:54:13.556Z,95989.81
2022-12-24T22:56:41.721Z,96017.94
2022-12-24T22:59:11.962Z,96014.16
2022-12-24T23:01:43.263Z,96019.00
2022-12-24T23:04:11.720Z,96012.72
2022-12-24T23:06:40.080Z,96015.56
2022-12-24T23:09:09.419Z,96018.94
2022-12-24T23:11:36.643Z,96027.22
2022-12-24T23:14:03.920Z,96025.19
2022-12-24T23:16:32.172Z,96029.22
2022-12-24T23:19:03.292Z,96047.38
2022-12-24T23:21:30.763Z,96067.97
2022-12-24T23:23:59.799Z,96060.13
2022-12-24T23:26:27.523Z,96078.19
2022-12-24T23:28:55.341Z,96078.47
2022-12-24T23:31:23.529Z,96062.06
2022-12-24T23:33:50.987Z,96063.84
2022-12-24T23:36:19.863Z,96046.16
2022-12-24T23:38:47.479Z,96055.94
2022-12-24T23:41:16.870Z,96065.19
2022-12-24T23:43:44.282Z,96085.03
2022-12-24T23:46:13.439Z,96093.84
2022-12-24T23:48:40.826Z,96093.84
2022-12-24T23:51:10.648Z,96096.56
2022-12-24T23:53:39.306Z,96111.91
2022-12-24T23:56:07.738Z,96141.09
2022-12-24T23:58:34.934Z,96156.41
